createdAt,value
2023-03-01T00:02:18.008Z,6.99
2023-03-01T00:04:46.104Z,7.11
2023-03-01T00:07:14.448Z,6.93
2023-03-01T00:09:43.146Z,6.94
2023-03-01T00:12:13.248Z,6.84
2023-03-01T00:14:41.629Z,6.76
2023-03-01T00:17:09.643Z,6.66
2023-03-01T00:19:38.050Z,6.69
2023-03-01T00:22:06.363Z,6.59
2023-03-01T00:24:34.606Z,6.42
2023-03-01T00:27:05.855Z,5.98
2023-03-01T00:29:34.379Z,5.65
2023-03-01T00:32:02.897Z,5.59
2023-03-01T00:34:31.232Z,5.46
2023-03-01T00:37:06.175Z,5.35
2023-03-01T00:39:41.917Z,5.55
2023-03-01T00:42:10.104Z,5.60
2023-03-01T00:44:38.109Z,5.58
2023-03-01T00:47:06.326Z,5.42
2023-03-01T00:49:38.512Z,5.47
2023-03-01T00:52:06.653Z,5.49
2023-03-01T00:54:37.242Z,5.28
2023-03-01T00:57:05.800Z,5.49
2023-03-01T00:59:34.183Z,5.52
2023-03-01T01:02:02.556Z,5.45
2023-03-01T01:04:30.807Z,5.40
2023-03-01T01:07:03.059Z,5.11
2023-03-01T01:09:31.138Z,5.23
2023-03-01T01:11:59.135Z,4.97
2023-03-01T01:14:27.518Z,4.89
2023-03-01T01:17:03.760Z,4.87
2023-03-01T01:19:32.359Z,4.91
2023-03-01T01:22:01.177Z,4.84
2023-03-01T01:24:29.399Z,4.71
2023-03-01T01:27:00.886Z,4.62
2023-03-01T01:29:29.544Z,4.60
2023-03-01T01:31:57.700Z,4.46
2023-03-01T01:34:28.731Z,4.33
2023-03-01T01:37:03.958Z,4.32
2023-03-01T01:39:32.444Z,4.39
2023-03-01T01:42:02.149Z,4.24
2023-03-01T01:44:31.543Z,4.33
2023-03-01T01:47:20.071Z,4.38
2023-03-01T01:49:55.925Z,4.57
2023-03-01T01:52:27.033Z,4.56
2023-03-01T01:55:04.306Z,4.54
2023-03-01T01:57:40.297Z,4.37
2023-03-01T02:00:31.206Z,4.23
2023-03-01T02:03:15.808Z,4.21
2023-03-01T02:05:55.599Z,4.31
2023-03-01T02:08:29.748Z,4.29
2023-03-01T02:11:01.037Z,4.30
2023-03-01T02:13:31.522Z,4.01
2023-03-01T02:16:09.835Z,3.98
2023-03-01T02:18:39.702Z,4.16
2023-03-01T02:21:26.182Z,4.18
2023-03-01T02:24:07.648Z,4.05
2023-03-01T02:26:49.620Z,3.95
2023-03-01T02:29:25.339Z,3.99
2023-03-01T02:32:03.502Z,4.06
2023-03-01T02:34:33.818Z,4.23
2023-03-01T02:37:13.890Z,4.32
2023-03-01T02:39:49.958Z,4.28
2023-03-01T02:42:27.196Z,4.41
2023-03-01T02:44:56.010Z,4.47
2023-03-01T02:47:24.525Z,4.58
2023-03-01T02:49:52.883Z,4.70
2023-03-01T02:52:41.073Z,4.66
2023-03-01T02:55:15.853Z,4.84
2023-03-01T02:57:51.977Z,4.79
2023-03-01T03:00:30.032Z,4.89
2023-03-01T03:02:59.244Z,4.93
2023-03-01T03:05:31.215Z,4.87
2023-03-01T03:08:02.355Z,5.00
2023-03-01T03:10:38.868Z,5.07
2023-03-01T03:13:12.332Z,5.01
2023-03-01T03:15:50.381Z,5.04
2023-03-01T03:18:29.450Z,5.04
2023-03-01T03:20:57.834Z,4.89
2023-03-01T03:23:29.855Z,4.97
2023-03-01T03:25:58.604Z,5.14
2023-03-01T03:28:41.168Z,5.16
2023-03-01T03:31:09.778Z,5.19
2023-03-01T03:33:38.218Z,5.12
2023-03-01T03:36:06.893Z,5.19
2023-03-01T03:38:35.337Z,5.26
2023-03-01T03:41:32.471Z,5.31
2023-03-01T03:44:01.577Z,5.17
2023-03-01T03:46:44.339Z,5.08
2023-03-01T03:49:12.597Z,5.18
2023-03-01T03:51:43.413Z,5.13
2023-03-01T03:54:13.243Z,5.03
2023-03-01T03:56:44.168Z,5.08
2023-03-01T03:59:12.674Z,5.12
2023-03-01T04:02:31.923Z,5.12
2023-03-01T04:05:00.382Z,5.04
2023-03-01T04:07:29.124Z,5.08
2023-03-01T04:09:57.631Z,5.14
2023-03-01T04:12:26.076Z,5.06
2023-03-01T04:14:54.628Z,4.72
2023-03-01T04:17:22.844Z,4.97
2023-03-01T04:19:54.358Z,5.03
2023-03-01T04:22:22.752Z,5.00
2023-03-01T04:24:52.487Z,4.96
2023-03-01T04:27:23.593Z,4.99
2023-03-01T04:29:53.227Z,4.98
2023-03-01T04:32:25.249Z,4.92
2023-03-01T04:34:59.046Z,5.12
2023-03-01T04:37:27.271Z,5.16
2023-03-01T04:39:54.813Z,5.05
2023-03-01T04:42:22.306Z,5.05
2023-03-01T04:44:52.290Z,4.93
2023-03-01T04:47:19.801Z,4.97
2023-03-01T04:49:47.240Z,5.08
2023-03-01T04:52:14.645Z,5.13
2023-03-01T04:54:42.165Z,5.25
2023-03-01T04:57:09.767Z,5.27
2023-03-01T04:59:37.270Z,5.24
2023-03-01T05:02:04.787Z,5.19
2023-03-01T05:04:32.342Z,5.40
2023-03-01T05:06:59.961Z,5.02
2023-03-01T05:09:27.507Z,5.29
2023-03-01T05:11:54.975Z,5.31
2023-03-01T05:14:22.915Z,5.34
2023-03-01T05:16:50.417Z,5.10
2023-03-01T05:19:23.685Z,4.87
2023-03-01T05:22:03.049Z,4.95
2023-03-01T05:24:35.392Z,5.18
2023-03-01T05:27:03.928Z,5.04
2023-03-01T05:29:36.071Z,5.02
2023-03-01T05:32:03.959Z,5.19
2023-03-01T05:34:34.571Z,5.27
2023-03-01T05:37:03.264Z,5.24
2023-03-01T05:39:31.377Z,5.38
2023-03-01T05:42:00.887Z,5.29
2023-03-01T05:44:29.643Z,5.44
2023-03-01T05:46:57.518Z,5.61
2023-03-01T05:49:25.141Z,5.58
2023-03-01T05:51:53.994Z,5.52
2023-03-01T05:54:22.852Z,5.71
2023-03-01T05:56:50.335Z,5.74
2023-03-01T05:59:17.809Z,5.78
2023-03-01T06:01:45.350Z,5.71
2023-03-01T06:04:12.759Z,5.82
2023-03-01T06:06:40.587Z,5.80
2023-03-01T06:09:10.352Z,5.81
2023-03-01T06:11:38.168Z,5.67
2023-03-01T06:14:07.565Z,5.84
2023-03-01T06:16:37.526Z,6.09
2023-03-01T06:19:05.089Z,6.00
2023-03-01T06:21:32.804Z,5.77
2023-03-01T06:24:00.328Z,5.95
2023-03-01T06:26:27.938Z,6.02
2023-03-01T06:28:55.381Z,6.07
2023-03-01T06:31:22.780Z,6.34
2023-03-01T06:33:50.747Z,6.31
2023-03-01T06:36:19.821Z,6.49
2023-03-01T06:38:47.295Z,6.67
2023-03-01T06:41:15.072Z,6.52
2023-03-01T06:43:42.527Z,6.36
2023-03-01T06:46:10.203Z,6.20
2023-03-01T06:48:37.725Z,6.32
2023-03-01T06:51:05.517Z,6.51
2023-03-01T06:53:37.363Z,6.33
2023-03-01T06:56:05.208Z,6.63
2023-03-01T06:58:35.170Z,7.05
2023-03-01T07:01:08.769Z,7.02
2023-03-01T07:04:14.421Z,6.75
2023-03-01T07:06:57.287Z,7.09
2023-03-01T07:09:25.244Z,6.85
2023-03-01T07:11:52.809Z,6.86
2023-03-01T07:14:20.838Z,7.10
2023-03-01T07:16:48.367Z,7.16
2023-03-01T07:19:15.837Z,7.35
2023-03-01T07:21:43.526Z,7.29
2023-03-01T07:24:11.747Z,7.27
2023-03-01T07:26:57.535Z,7.02
2023-03-01T07:29:24.973Z,6.78
2023-03-01T07:31:53.632Z,6.98
2023-03-01T07:34:21.057Z,7.08
2023-03-01T07:36:48.548Z,6.68
2023-03-01T07:39:17.516Z,6.85
2023-03-01T07:41:45.966Z,7.04
2023-03-01T07:44:13.441Z,6.97
2023-03-01T07:46:40.943Z,7.04
2023-03-01T07:49:08.494Z,6.68
2023-03-01T07:51:35.947Z,7.11
2023-03-01T07:54:03.567Z,7.57
2023-03-01T07:56:31.455Z,7.37
2023-03-01T07:59:00.287Z,7.71
2023-03-01T08:01:27.739Z,8.18
2023-03-01T08:03:55.163Z,8.32
2023-03-01T08:06:22.730Z,7.97
2023-03-01T08:08:50.254Z,8.33
2023-03-01T08:11:17.753Z,8.44
2023-03-01T08:13:51.019Z,8.51
2023-03-01T08:16:18.929Z,8.47
2023-03-01T08:18:47.611Z,8.71
2023-03-01T08:21:17.914Z,8.60
2023-03-01T08:23:45.759Z,9.34
2023-03-01T08:26:15.271Z,9.62
2023-03-01T08:28:43.661Z,9.13
2023-03-01T08:31:38.557Z,9.11
2023-03-01T08:34:12.601Z,9.29
2023-03-01T08:36:42.630Z,9.63
2023-03-01T08:39:12.699Z,9.52
2023-03-01T08:41:40.862Z,9.84
2023-03-01T08:44:09.871Z,9.66
2023-03-01T08:46:42.032Z,9.65
2023-03-01T08:49:14.169Z,9.62
2023-03-01T08:51:42.121Z,9.28
2023-03-01T08:54:15.886Z,8.80
2023-03-01T08:56:43.534Z,9.02
2023-03-01T08:59:15.899Z,9.23
2023-03-01T09:01:46.321Z,9.37
2023-03-01T09:04:15.450Z,9.59
2023-03-01T09:06:43.166Z,9.75
2023-03-01T09:09:17.072Z,9.89
2023-03-01T09:11:47.408Z,9.92
2023-03-01T09:14:15.333Z,9.85
2023-03-01T09:16:43.439Z,9.80
2023-03-01T09:19:12.137Z,9.72
2023-03-01T09:21:41.234Z,9.93
2023-03-01T09:24:15.807Z,9.70
2023-03-01T09:26:44.060Z,9.96
2023-03-01T09:29:11.534Z,10.10
2023-03-01T09:31:39.350Z,9.80
2023-03-01T09:34:07.418Z,10.15
2023-03-01T09:36:35.202Z,10.28
2023-03-01T09:39:03.928Z,10.19
2023-03-01T09:41:47.099Z,10.10
2023-03-01T09:44:26.492Z,10.39
2023-03-01T09:46:54.272Z,10.09
2023-03-01T09:49:35.008Z,10.46
2023-03-01T09:52:16.188Z,10.65
2023-03-01T09:54:43.665Z,10.78
2023-03-01T09:57:27.591Z,10.86
2023-03-01T10:00:15.616Z,10.68
2023-03-01T10:02:48.462Z,10.34
2023-03-01T10:05:42.507Z,10.27
2023-03-01T10:08:58.216Z,10.63
2023-03-01T10:11:39.345Z,10.43
2023-03-01T10:14:30.561Z,10.47
2023-03-01T10:17:05.781Z,10.41
2023-03-01T10:19:43.288Z,10.54
2023-03-01T10:22:22.416Z,10.93
2023-03-01T10:24:52.990Z,10.78
2023-03-01T10:27:49.295Z,10.73
2023-03-01T10:30:40.467Z,10.59
2023-03-01T10:33:32.075Z,10.12
2023-03-01T10:35:59.730Z,10.34
2023-03-01T10:38:31.089Z,10.66
2023-03-01T10:41:06.546Z,10.94
2023-03-01T10:43:52.795Z,10.64
2023-03-01T10:46:24.705Z,10.93
2023-03-01T10:49:21.213Z,11.16
2023-03-01T10:51:51.455Z,10.66
2023-03-01T10:54:29.882Z,11.31
2023-03-01T10:57:00.210Z,11.32
2023-03-01T10:59:36.119Z,11.72
2023-03-01T11:02:24.968Z,11.94
2023-03-01T11:05:14.579Z,12.00
2023-03-01T11:07:57.597Z,12.49
2023-03-01T11:10:30.808Z,12.61
2023-03-01T11:13:19.443Z,11.46
2023-03-01T11:16:07.918Z,11.45
2023-03-01T11:18:47.153Z,10.93
2023-03-01T11:21:17.285Z,11.52
2023-03-01T11:23:47.957Z,11.37
2023-03-01T11:26:17.837Z,11.70
2023-03-01T11:28:51.308Z,11.58
2023-03-01T11:31:20.725Z,11.50
2023-03-01T11:34:03.870Z,11.64
2023-03-01T11:36:39.063Z,11.34
2023-03-01T11:39:24.384Z,11.32
2023-03-01T11:42:18.551Z,11.08
2023-03-01T11:44:50.797Z,10.91
2023-03-01T11:47:34.121Z,10.79
2023-03-01T11:50:01.671Z,10.61
2023-03-01T11:52:33.769Z,10.78
2023-03-01T11:55:18.480Z,10.33
2023-03-01T11:58:07.064Z,10.32
2023-03-01T12:00:53.029Z,11.10
2023-03-01T12:03:26.364Z,11.20
2023-03-01T12:06:15.733Z,10.87
2023-03-01T12:08:52.796Z,11.26
2023-03-01T12:11:32.734Z,11.48
2023-03-01T12:14:25.446Z,11.35
2023-03-01T12:17:27.075Z,11.35
2023-03-01T12:20:21.335Z,11.31
2023-03-01T12:23:19.569Z,11.26
2023-03-01T12:26:25.966Z,11.33
2023-03-01T12:29:18.077Z,10.83
2023-03-01T12:32:01.110Z,10.98
2023-03-01T12:35:18.001Z,10.40
2023-03-01T12:38:30.221Z,10.16
2023-03-01T12:41:18.638Z,10.19
2023-03-01T12:44:11.041Z,10.18
2023-03-01T12:47:09.893Z,9.97
2023-03-01T12:49:46.044Z,10.12
2023-03-01T12:52:19.966Z,10.21
2023-03-01T12:54:49.013Z,9.77
2023-03-01T12:57:30.287Z,9.83
2023-03-01T13:00:28.320Z,10.04
2023-03-01T13:03:19.169Z,10.49
2023-03-01T13:05:57.610Z,10.15
2023-03-01T13:08:37.726Z,10.48
2023-03-01T13:11:13.077Z,10.73
2023-03-01T13:13:40.515Z,10.84
2023-03-01T13:16:43.956Z,10.94
2023-03-01T13:19:25.263Z,11.03
2023-03-01T13:21:57.915Z,10.77
2023-03-01T13:24:27.947Z,10.89
2023-03-01T13:27:07.111Z,10.96
2023-03-01T13:29:47.880Z,10.81
2023-03-01T13:32:43.123Z,10.94
2023-03-01T13:35:34.356Z,9.72
2023-03-01T13:38:38.301Z,9.58
2023-03-01T13:41:06.374Z,9.62
2023-03-01T13:43:36.632Z,9.97
2023-03-01T13:46:30.791Z,9.82
2023-03-01T13:48:58.499Z,9.75
2023-03-01T13:51:29.400Z,9.89
2023-03-01T13:53:58.768Z,10.08
2023-03-01T13:56:29.303Z,10.12
2023-03-01T13:59:05.450Z,10.19
2023-03-01T14:01:36.248Z,10.14
2023-03-01T14:04:19.215Z,10.05
2023-03-01T14:06:47.607Z,9.99
2023-03-01T14:09:22.585Z,9.66
2023-03-01T14:12:28.460Z,9.48
2023-03-01T14:15:21.301Z,9.31
2023-03-01T14:18:03.465Z,9.47
2023-03-01T14:20:36.436Z,9.11
2023-03-01T14:23:12.720Z,9.13
2023-03-01T14:25:49.923Z,9.42
2023-03-01T14:28:24.161Z,9.42
2023-03-01T14:30:56.749Z,9.36
2023-03-01T14:33:27.305Z,9.17
2023-03-01T14:36:13.774Z,8.87
2023-03-01T14:38:49.270Z,8.93
2023-03-01T14:41:25.836Z,8.92
2023-03-01T14:44:00.845Z,9.04
2023-03-01T14:46:39.784Z,8.64
2023-03-01T14:49:39.627Z,8.80
2023-03-01T14:52:22.018Z,8.56
2023-03-01T14:54:52.195Z,8.65
2023-03-01T14:57:27.290Z,8.84
2023-03-01T14:59:58.347Z,9.13
2023-03-01T15:02:28.405Z,9.03
2023-03-01T15:04:58.504Z,9.07
2023-03-01T15:07:30.822Z,9.15
2023-03-01T15:10:00.065Z,8.93
2023-03-01T15:12:30.176Z,9.00
2023-03-01T15:15:04.181Z,8.93
2023-03-01T15:17:35.427Z,8.03
2023-03-01T15:20:06.890Z,8.26
2023-03-01T15:22:35.947Z,8.33
2023-03-01T15:25:03.613Z,7.84
2023-03-01T15:27:31.086Z,8.28
2023-03-01T15:30:01.246Z,8.00
2023-03-01T15:32:32.279Z,8.41
2023-03-01T15:35:01.855Z,7.97
2023-03-01T15:38:02.580Z,8.02
2023-03-01T15:40:33.581Z,8.20
2023-03-01T15:43:07.967Z,8.11
2023-03-01T15:45:39.868Z,7.98
2023-03-01T15:48:18.605Z,7.80
2023-03-01T15:50:58.694Z,7.82
2023-03-01T15:53:35.335Z,8.00
2023-03-01T15:56:25.922Z,7.76
2023-03-01T15:59:02.262Z,7.98
2023-03-01T16:01:30.116Z,7.50
2023-03-01T16:03:59.139Z,7.34
2023-03-01T16:06:26.767Z,7.55
2023-03-01T16:08:54.523Z,7.45
2023-03-01T16:11:22.352Z,7.43
2023-03-01T16:13:50.777Z,7.61
2023-03-01T16:16:18.466Z,7.18
2023-03-01T16:18:47.681Z,7.38
2023-03-01T16:21:19.428Z,7.20
2023-03-01T16:23:47.080Z,7.19
2023-03-01T16:26:15.521Z,7.04
2023-03-01T16:28:43.901Z,6.91
2023-03-01T16:31:12.108Z,7.00
2023-03-01T16:33:39.837Z,7.04
2023-03-01T16:36:12.383Z,7.28
2023-03-01T16:38:39.805Z,7.01
2023-03-01T16:41:13.259Z,7.23
2023-03-01T16:43:42.029Z,7.08
2023-03-01T16:46:20.689Z,7.32
2023-03-01T16:48:49.074Z,6.94
2023-03-01T16:51:16.935Z,7.11
2023-03-01T16:53:46.333Z,7.18
2023-03-01T16:56:15.493Z,7.62
2023-03-01T16:58:46.817Z,7.10
2023-03-01T17:01:21.190Z,7.39
2023-03-01T17:03:50.983Z,7.41
2023-03-01T17:06:28.018Z,7.27
2023-03-01T17:08:55.855Z,7.07
2023-03-01T17:11:24.065Z,7.03
2023-03-01T17:13:56.373Z,7.41
2023-03-01T17:16:28.313Z,7.37
2023-03-01T17:18:56.640Z,7.11
2023-03-01T17:21:24.873Z,7.41
2023-03-01T17:24:03.343Z,7.46
2023-03-01T17:26:34.177Z,7.63
2023-03-01T17:29:09.760Z,7.05
2023-03-01T17:31:44.375Z,7.30
2023-03-01T17:34:40.104Z,7.21
2023-03-01T17:37:10.621Z,7.31
2023-03-01T17:39:39.925Z,7.40
2023-03-01T17:42:08.037Z,7.44
2023-03-01T17:44:39.401Z,7.41
2023-03-01T17:47:07.288Z,7.56
2023-03-01T17:49:34.945Z,7.24
2023-03-01T17:52:02.777Z,7.60
2023-03-01T17:54:30.806Z,7.35
2023-03-01T17:57:00.249Z,7.37
2023-03-01T17:59:40.703Z,7.62
2023-03-01T18:02:13.737Z,7.39
2023-03-01T18:04:41.434Z,7.54
2023-03-01T18:07:12.813Z,7.33
2023-03-01T18:09:41.329Z,7.59
2023-03-01T18:12:10.815Z,7.63
2023-03-01T18:14:55.663Z,7.78
2023-03-01T18:17:26.130Z,7.61
2023-03-01T18:19:57.643Z,7.67
2023-03-01T18:22:26.201Z,7.42
2023-03-01T18:24:53.702Z,7.24
2023-03-01T18:27:21.287Z,7.41
2023-03-01T18:29:48.832Z,7.52
2023-03-01T18:32:17.794Z,7.62
2023-03-01T18:34:48.555Z,7.46
2023-03-01T18:37:16.523Z,7.52
2023-03-01T18:39:58.847Z,7.43
2023-03-01T18:42:29.538Z,7.48
2023-03-01T18:45:02.120Z,7.21
2023-03-01T18:47:30.322Z,7.08
2023-03-01T18:49:58.204Z,7.40
2023-03-01T18:52:26.025Z,7.55
2023-03-01T18:54:59.939Z,7.50
2023-03-01T18:57:34.929Z,7.58
2023-03-01T19:00:06.220Z,7.52
2023-03-01T19:02:45.525Z,7.41
2023-03-01T19:05:17.374Z,7.47
2023-03-01T19:09:00.800Z,7.46
2023-03-01T19:11:44.045Z,7.36
2023-03-01T19:25:19.816Z,7.43
2023-03-01T19:27:58.024Z,7.42
2023-03-01T19:37:04.426Z,7.41
2023-03-01T19:46:28.182Z,7.64
2023-03-01T19:50:00.216Z,7.65
2023-03-01T20:00:48.668Z,7.78
2023-03-01T20:09:37.700Z,7.73
2023-03-01T20:12:40.560Z,7.87
2023-03-01T20:15:13.530Z,7.87
2023-03-01T20:18:32.226Z,8.10
2023-03-01T20:21:01.130Z,8.28
2023-03-01T20:23:29.640Z,8.21
2023-03-01T20:30:32.200Z,7.88
2023-03-01T20:38:11.399Z,7.95
2023-03-01T20:40:47.686Z,8.18
2023-03-01T20:43:22.383Z,8.25
2023-03-01T20:45:52.769Z,8.12
2023-03-01T20:52:47.433Z,8.15
2023-03-01T20:55:47.471Z,7.96
2023-03-01T20:58:25.253Z,8.18
2023-03-01T21:01:24.671Z,8.16
2023-03-01T21:04:31.373Z,8.23
2023-03-01T21:11:29.270Z,8.21
2023-03-01T21:14:14.560Z,8.27
2023-03-01T21:17:12.166Z,8.40
2023-03-01T21:19:43.854Z,8.41
2023-03-01T21:22:15.446Z,8.50
2023-03-01T21:24:52.341Z,8.34
2023-03-01T21:27:22.352Z,8.49
2023-03-01T21:33:46.401Z,8.55
2023-03-01T21:36:31.097Z,8.45
2023-03-01T21:40:06.220Z,8.64
2023-03-01T21:42:52.492Z,8.55
2023-03-01T21:45:20.231Z,8.34
2023-03-01T21:47:50.281Z,8.65
2023-03-01T21:50:47.773Z,8.64
2023-03-01T21:54:17.149Z,8.53
2023-03-01T21:57:05.646Z,8.53
2023-03-01T22:00:08.477Z,8.39
2023-03-01T22:04:32.243Z,8.48
2023-03-01T22:07:46.591Z,8.54
2023-03-01T22:11:18.748Z,8.58
2023-03-01T22:14:27.661Z,8.60
2023-03-01T22:59:24.667Z,9.24
2023-03-01T23:18:37.694Z,9.32
2023-03-01T23:22:26.841Z,9.28
2023-03-01T23:24:56.845Z,9.40
2023-03-01T23:27:26.911Z,9.38
2023-03-01T23:31:12.405Z,9.49
2023-03-01T23:33:45.935Z,9.04
2023-03-01T23:36:27.269Z,9.16
2023-03-01T23:39:07.496Z,9.27
2023-03-01T23:41:40.546Z,9.20
2023-03-01T23:44:26.519Z,9.37
2023-03-01T23:46:57.062Z,9.17
2023-03-01T23:49:25.112Z,9.31
2023-03-01T23:52:04.317Z,9.38
2023-03-01T23:55:58.640Z,9.63
2023-03-01T23:58:30.924Z,9.75
